Time;durP1;ratioP1;P1;durP2;ratioP2;P2;SDS_P1;SDS_P2;PMS_P1;PMS_P2;Temp;Humidity;BMP_temperature;BMP_pressure;BME280_temperature;BME280_humidity;BME280_pressure;Samples;Min_cycle;Max_cycle;Signal;HPM_P1;HPM_P2
2023/04/15 00:02:18;;;;;;;14.63;13.23;;;9.30;99.90;;;;;;4928156;29;20813;-72
2023/04/15 00:04:47;;;;;;;13.87;12.47;;;9.30;99.90;;;;;;4928104;29;20240;-73
2023/04/15 00:07:15;;;;;;;14.93;13.43;;;9.20;99.90;;;;;;4928543;29;20303;-73
2023/04/15 00:09:43;;;;;;;15.80;13.67;;;9.30;99.90;;;;;;4928133;29;20215;-73
2023/04/15 00:12:11;;;;;;;15.07;13.47;;;9.30;99.90;;;;;;4928123;29;20208;-74
2023/04/15 00:14:38;;;;;;;16.07;14.37;;;9.20;99.90;;;;;;4927614;29;20295;-74
2023/04/15 00:17:05;;;;;;;16.20;14.50;;;9.20;99.90;;;;;;4928193;29;20263;-73
2023/04/15 00:19:32;;;;;;;14.57;13.17;;;9.30;99.90;;;;;;4927946;29;20242;-72
2023/04/15 00:22:00;;;;;;;16.27;14.67;;;9.30;99.90;;;;;;4928128;29;20223;-76
2023/04/15 00:24:28;;;;;;;16.43;14.47;;;9.30;99.90;;;;;;4927626;29;20232;-75
2023/04/15 00:26:54;;;;;;;15.53;13.93;;;9.30;99.90;;;;;;4927861;29;20212;-73
2023/04/15 00:29:21;;;;;;;18.80;15.23;;;9.30;99.90;;;;;;4927839;29;20614;-73
2023/04/15 00:31:48;;;;;;;22.13;19.97;;;9.30;99.90;;;;;;4927433;29;20296;-72
2023/04/15 00:34:15;;;;;;;16.57;14.93;;;9.30;99.90;;;;;;4927435;29;20291;-74
2023/04/15 00:36:42;;;;;;;17.30;14.53;;;9.30;99.90;;;;;;4927321;29;20603;-74
2023/04/15 00:39:10;;;;;;;16.43;14.73;;;9.30;99.90;;;;;;4928149;29;20271;-75
2023/04/15 00:41:38;;;;;;;17.17;15.37;;;9.30;99.90;;;;;;4928039;29;20287;-75
2023/04/15 00:44:06;;;;;;;18.63;16.03;;;9.40;99.90;;;;;;4927622;29;20234;-74
2023/04/15 00:46:36;;;;;;;18.20;15.47;;;9.30;99.90;;;;;;4924886;29;20216;-73
2023/04/15 00:49:05;;;;;;;139.23;105.97;;;9.30;99.90;;;;;;4927902;29;20929;-73
2023/04/15 00:51:34;;;;;;;66.80;54.57;;;9.40;99.90;;;;;;4927397;29;20243;-74
2023/04/15 00:54:02;;;;;;;21.93;18.27;;;9.40;99.90;;;;;;4927721;29;20232;-75
2023/04/15 00:56:30;;;;;;;18.03;15.87;;;9.40;99.90;;;;;;4927957;29;20299;-73
2023/04/15 00:58:58;;;;;;;19.10;16.70;;;9.30;99.90;;;;;;4927899;29;20775;-79
2023/04/15 01:01:27;;;;;;;18.43;16.43;;;9.30;99.90;;;;;;4927819;29;20298;-79
2023/04/15 01:03:57;;;;;;;18.87;16.37;;;9.40;99.90;;;;;;4927949;29;20259;-79
2023/04/15 01:06:25;;;;;;;18.67;16.20;;;9.40;99.90;;;;;;4927424;29;20722;-81
2023/04/15 01:08:53;;;;;;;19.03;16.67;;;9.30;99.90;;;;;;4908865;29;20223;-76
2023/04/15 01:11:20;;;;;;;19.70;17.00;;;9.30;99.90;;;;;;4919198;29;20294;-77
2023/04/15 01:13:48;;;;;;;19.20;16.33;;;9.30;99.90;;;;;;4930147;29;20273;-76
2023/04/15 01:16:16;;;;;;;19.17;17.13;;;9.30;99.90;;;;;;4934635;28;20236;-74
2023/04/15 01:18:43;;;;;;;19.23;16.80;;;9.30;99.90;;;;;;4927195;29;20325;-76
2023/04/15 01:21:10;;;;;;;20.83;18.57;;;9.30;99.90;;;;;;4927519;29;20240;-78
2023/04/15 01:23:38;;;;;;;19.70;17.20;;;9.30;99.90;;;;;;4927048;29;20216;-74
2023/04/15 01:26:07;;;;;;;20.20;17.60;;;9.30;99.90;;;;;;4926895;29;20294;-74
2023/04/15 01:28:35;;;;;;;20.60;18.33;;;9.30;99.90;;;;;;4926196;29;20208;-74
2023/04/15 01:31:09;;;;;;;20.97;17.83;;;9.30;99.90;;;;;;4926971;29;20212;-74
2023/04/15 01:33:36;;;;;;;19.97;17.87;;;9.30;99.90;;;;;;4927002;29;20211;-74
2023/04/15 01:36:04;;;;;;;22.77;18.77;;;9.30;99.90;;;;;;4927064;29;20239;-73
2023/04/15 01:38:32;;;;;;;22.47;18.47;;;9.30;99.90;;;;;;4926599;29;20787;-73
2023/04/15 01:40:59;;;;;;;23.20;18.73;;;9.30;99.90;;;;;;4926556;29;20208;-73
2023/04/15 01:43:28;;;;;;;23.27;19.07;;;9.30;99.90;;;;;;4926544;29;20209;-74
2023/04/15 01:45:55;;;;;;;21.43;18.47;;;9.30;99.90;;;;;;4926208;29;20331;-75
2023/04/15 01:48:22;;;;;;;22.53;18.50;;;9.30;99.90;;;;;;4926003;29;20211;-77
2023/04/15 01:50:49;;;;;;;23.40;19.20;;;9.30;99.90;;;;;;4926063;29;20251;-78
2023/04/15 01:53:16;;;;;;;24.63;19.70;;;9.30;99.90;;;;;;4926041;29;20259;-76
2023/04/15 01:55:43;;;;;;;21.93;18.93;;;9.30;99.90;;;;;;4926621;29;20354;-74
2023/04/15 01:58:10;;;;;;;26.57;18.47;;;9.30;99.90;;;;;;4926474;29;20416;-76
2023/04/15 02:00:38;;;;;;;22.47;18.97;;;9.30;99.90;;;;;;4907542;29;20312;-75
2023/04/15 02:03:05;;;;;;;26.03;19.73;;;9.30;99.90;;;;;;4907707;29;20237;-76
2023/04/15 02:05:32;;;;;;;24.47;19.03;;;9.30;99.90;;;;;;4907478;29;20319;-74
2023/04/15 02:07:59;;;;;;;23.37;19.83;;;9.30;99.90;;;;;;4911562;29;20218;-75
2023/04/15 02:10:26;;;;;;;25.03;18.80;;;9.30;99.90;;;;;;4911144;29;20311;-75
2023/04/15 02:12:53;;;;;;;22.57;19.17;;;9.30;99.90;;;;;;4920985;29;20667;-75
2023/04/15 02:15:20;;;;;;;25.70;20.93;;;9.30;99.90;;;;;;4929853;29;20303;-75
2023/04/15 02:17:49;;;;;;;27.23;20.03;;;9.30;99.90;;;;;;4929609;29;20422;-74
2023/04/15 02:20:17;;;;;;;21.50;18.50;;;9.30;99.90;;;;;;4929660;29;20218;-72
2023/04/15 02:22:44;;;;;;;24.97;19.10;;;9.30;99.90;;;;;;4929988;29;20218;-74
2023/04/15 02:25:11;;;;;;;22.40;19.10;;;9.30;99.90;;;;;;4929959;29;20655;-72
2023/04/15 02:27:38;;;;;;;23.13;19.93;;;9.30;99.90;;;;;;4930130;29;20604;-72
2023/04/15 02:30:08;;;;;;;23.70;19.50;;;9.30;99.90;;;;;;4930388;29;20236;-73
2023/04/15 02:32:36;;;;;;;22.43;19.63;;;9.30;99.90;;;;;;4929578;29;20212;-71
2023/04/15 02:35:06;;;;;;;28.73;25.60;;;9.40;99.90;;;;;;4931925;29;20734;-72
2023/04/15 02:37:40;;;;;;;38.83;34.73;;;9.30;99.90;;;;;;4931384;29;20824;-71
2023/04/15 02:40:08;;;;;;;26.77;20.10;;;9.30;99.90;;;;;;4931722;29;20196;-72
2023/04/15 02:42:35;;;;;;;23.73;19.70;;;9.30;99.90;;;;;;4931417;29;20733;-74
2023/04/15 02:45:02;;;;;;;22.10;18.77;;;9.30;99.90;;;;;;4931219;29;20318;-72
2023/04/15 02:47:29;;;;;;;23.97;19.47;;;9.30;99.90;;;;;;4930988;29;20299;-73
2023/04/15 02:49:57;;;;;;;26.23;20.40;;;9.30;99.90;;;;;;4931106;29;20212;-73
2023/04/15 02:52:25;;;;;;;27.03;20.70;;;9.30;99.90;;;;;;4931347;29;20218;-72
2023/04/15 02:54:56;;;;;;;24.53;20.40;;;9.30;99.90;;;;;;4930531;29;20231;-73
2023/04/15 02:57:23;;;;;;;25.03;20.53;;;9.30;99.90;;;;;;4930924;29;20196;-73
2023/04/15 02:59:50;;;;;;;25.93;19.93;;;9.30;99.90;;;;;;4930928;29;20298;-72
2023/04/15 03:02:16;;;;;;;25.63;20.03;;;9.30;99.90;;;;;;4931674;29;20232;-73
2023/04/15 03:04:43;;;;;;;28.23;20.60;;;9.30;99.90;;;;;;4931231;29;20267;-73
2023/04/15 03:07:10;;;;;;;25.63;19.77;;;9.30;99.90;;;;;;4931020;29;20206;-72
2023/04/15 03:09:40;;;;;;;24.47;20.53;;;9.20;99.90;;;;;;4930650;29;20284;-72
2023/04/15 03:12:07;;;;;;;26.93;20.03;;;9.20;99.90;;;;;;4927945;29;20209;-73
2023/04/15 03:14:34;;;;;;;25.93;20.63;;;9.20;99.90;;;;;;4927740;29;20307;-72
2023/04/15 03:17:01;;;;;;;25.30;20.80;;;9.20;99.90;;;;;;4930834;29;20460;-73
2023/04/15 03:19:28;;;;;;;25.60;20.63;;;9.20;99.90;;;;;;4930706;29;20263;-73
2023/04/15 03:21:55;;;;;;;24.33;19.73;;;9.20;99.90;;;;;;4930833;29;20651;-73
2023/04/15 03:24:22;;;;;;;26.20;20.33;;;9.20;99.90;;;;;;4930622;29;20293;-73
2023/04/15 03:26:50;;;;;;;25.20;21.00;;;9.20;99.90;;;;;;4930659;29;20303;-73
2023/04/15 03:29:17;;;;;;;25.63;20.83;;;9.20;99.90;;;;;;4930137;29;20869;-73
2023/04/15 03:31:44;;;;;;;23.53;19.30;;;9.20;99.90;;;;;;4930596;29;20239;-73
2023/04/15 03:34:11;;;;;;;26.10;20.73;;;9.20;99.90;;;;;;4927453;29;20674;-73
2023/04/15 03:36:38;;;;;;;27.17;21.47;;;9.20;99.90;;;;;;4930602;29;20267;-73
2023/04/15 03:39:05;;;;;;;26.57;20.57;;;9.20;99.90;;;;;;4930551;29;20303;-73
2023/04/15 03:41:32;;;;;;;26.07;20.47;;;9.20;99.90;;;;;;4930911;29;20235;-75
2023/04/15 03:44:00;;;;;;;26.97;21.17;;;9.20;99.90;;;;;;4930656;29;20364;-73
2023/04/15 03:46:27;;;;;;;25.83;20.13;;;9.20;99.90;;;;;;4929888;29;20766;-73
2023/04/15 03:48:54;;;;;;;28.30;20.93;;;9.20;99.90;;;;;;4930465;29;20247;-73
2023/04/15 03:51:21;;;;;;;25.17;20.27;;;9.20;99.90;;;;;;4930586;29;20208;-73
2023/04/15 03:53:48;;;;;;;26.27;20.67;;;9.20;99.90;;;;;;4930747;29;20339;-73
2023/04/15 03:56:15;;;;;;;27.80;21.10;;;9.20;99.90;;;;;;4930379;29;20217;-73
2023/04/15 03:58:42;;;;;;;26.40;20.60;;;9.20;99.90;;;;;;4929431;29;20739;-73
2023/04/15 04:01:10;;;;;;;26.27;19.67;;;9.20;99.90;;;;;;4930154;29;20314;-73
2023/04/15 04:03:37;;;;;;;22.87;19.53;;;9.20;99.90;;;;;;4930156;29;20306;-73
2023/04/15 04:06:05;;;;;;;24.70;19.67;;;9.20;99.90;;;;;;4930474;29;20232;-73
2023/04/15 04:08:31;;;;;;;28.13;20.03;;;9.20;99.90;;;;;;4930090;29;20239;-73
2023/04/15 04:10:58;;;;;;;26.27;20.50;;;9.20;99.90;;;;;;4930190;29;20208;-73
2023/04/15 04:13:25;;;;;;;23.70;19.77;;;9.20;99.90;;;;;;4929724;29;20216;-73
2023/04/15 04:15:52;;;;;;;29.10;20.23;;;9.20;99.90;;;;;;4929610;29;20790;-72
2023/04/15 04:18:20;;;;;;;22.40;18.73;;;9.20;99.90;;;;;;4929649;29;20200;-73
2023/04/15 04:20:47;;;;;;;26.17;19.50;;;9.20;99.90;;;;;;4929759;29;20236;-72
2023/04/15 04:23:14;;;;;;;27.63;19.80;;;9.20;99.90;;;;;;4929684;29;20513;-72
2023/04/15 04:25:42;;;;;;;29.20;20.20;;;9.20;99.90;;;;;;4929388;29;20331;-72
2023/04/15 04:28:10;;;;;;;25.53;19.50;;;9.20;99.90;;;;;;4929686;29;20212;-72
2023/04/15 04:30:37;;;;;;;25.73;20.00;;;9.20;99.90;;;;;;4926144;29;20302;-72
2023/04/15 04:33:04;;;;;;;25.83;19.47;;;9.20;99.90;;;;;;4918348;29;20217;-73
2023/04/15 04:35:36;;;;;;;26.70;19.60;;;9.20;99.90;;;;;;4910499;29;20291;-72
2023/04/15 04:38:03;;;;;;;26.93;19.50;;;9.20;99.90;;;;;;4922095;29;20197;-72
2023/04/15 04:40:30;;;;;;;27.03;19.97;;;9.20;99.90;;;;;;4929885;29;20323;-74
2023/04/15 04:42:57;;;;;;;26.27;20.23;;;9.20;99.90;;;;;;4930325;29;20358;-75
2023/04/15 04:45:23;;;;;;;27.57;19.90;;;9.20;99.90;;;;;;4928623;29;20331;-75
2023/04/15 04:47:50;;;;;;;22.60;18.40;;;9.20;99.90;;;;;;4929898;29;20307;-75
2023/04/15 04:50:17;;;;;;;25.63;19.70;;;9.20;99.90;;;;;;4929608;29;20212;-75
2023/04/15 04:52:46;;;;;;;23.23;18.47;;;9.20;99.90;;;;;;4929575;29;20609;-75
2023/04/15 04:55:12;;;;;;;24.77;19.60;;;9.30;99.90;;;;;;4929928;29;20220;-75
2023/04/15 04:57:40;;;;;;;25.27;19.93;;;9.20;99.90;;;;;;4929496;29;20295;-75
2023/04/15 05:00:08;;;;;;;23.83;18.90;;;9.20;99.90;;;;;;4928966;29;20251;-75
2023/04/15 05:02:35;;;;;;;28.67;20.23;;;9.30;99.90;;;;;;4929369;29;20212;-74
2023/04/15 05:05:02;;;;;;;28.10;19.93;;;9.30;99.90;;;;;;4929754;29;20274;-74
2023/04/15 05:07:29;;;;;;;29.33;21.07;;;9.30;99.90;;;;;;4924898;29;20291;-74
2023/04/15 05:09:57;;;;;;;27.43;19.50;;;9.30;99.90;;;;;;4929245;29;20778;-74
2023/04/15 05:12:24;;;;;;;31.20;21.17;;;9.30;99.90;;;;;;4929730;29;20310;-74
2023/04/15 05:14:51;;;;;;;32.57;19.53;;;9.30;99.90;;;;;;4928817;29;20656;-74
2023/04/15 05:17:18;;;;;;;27.37;19.57;;;9.30;99.90;;;;;;4928757;29;20601;-74
2023/04/15 05:19:45;;;;;;;24.53;18.43;;;9.30;99.90;;;;;;4929223;29;20310;-74
2023/04/15 05:22:11;;;;;;;21.67;17.80;;;9.30;99.90;;;;;;4928668;29;20294;-74
2023/04/15 05:24:38;;;;;;;23.37;18.93;;;9.30;99.90;;;;;;4928867;29;20294;-74
2023/04/15 05:27:09;;;;;;;26.10;19.20;;;9.30;99.90;;;;;;4939373;29;20350;-74
2023/04/15 05:29:36;;;;;;;22.47;17.83;;;9.30;99.90;;;;;;4936458;28;20207;-74
2023/04/15 05:32:03;;;;;;;24.57;19.20;;;9.30;99.90;;;;;;4928498;29;20218;-74
2023/04/15 05:34:30;;;;;;;22.43;17.97;;;9.30;99.90;;;;;;4928461;29;20207;-74
2023/04/15 05:36:56;;;;;;;23.03;18.40;;;9.40;99.90;;;;;;4928915;29;20252;-74
2023/04/15 05:39:23;;;;;;;22.87;17.73;;;9.40;99.90;;;;;;4928506;29;20211;-73
2023/04/15 05:41:51;;;;;;;19.90;17.70;;;9.40;99.90;;;;;;4927379;29;20303;-72
2023/04/15 05:44:19;;;;;;;19.17;16.20;;;9.40;99.90;;;;;;4927962;29;20212;-72
2023/04/15 05:46:46;;;;;;;17.83;15.93;;;9.50;99.90;;;;;;4928409;29;20331;-73
2023/04/15 05:49:12;;;;;;;22.07;17.33;;;9.40;99.90;;;;;;4928662;29;20208;-72
2023/04/15 05:51:40;;;;;;;20.83;16.43;;;9.40;99.90;;;;;;4928005;29;20251;-73
2023/04/15 05:54:07;;;;;;;19.03;15.83;;;9.50;99.90;;;;;;4928227;29;20275;-73
2023/04/15 05:56:34;;;;;;;20.43;16.40;;;9.50;99.90;;;;;;4928320;29;20561;-73
2023/04/15 05:59:00;;;;;;;19.70;16.10;;;9.50;99.90;;;;;;4928194;29;20306;-73
2023/04/15 06:01:29;;;;;;;20.13;16.20;;;9.50;99.90;;;;;;4927836;29;20687;-73
2023/04/15 06:03:56;;;;;;;19.73;16.50;;;9.50;99.90;;;;;;4928688;29;20239;-73
2023/04/15 06:06:23;;;;;;;17.53;15.53;;;9.50;99.90;;;;;;4927737;29;20286;-73
2023/04/15 06:08:50;;;;;;;19.37;16.37;;;9.50;99.90;;;;;;4928358;29;20291;-73
2023/04/15 06:11:17;;;;;;;19.80;16.07;;;9.60;99.90;;;;;;4927866;29;20580;-73
2023/04/15 06:13:44;;;;;;;20.23;15.97;;;9.60;99.90;;;;;;4927806;29;20303;-73
2023/04/15 06:16:10;;;;;;;17.47;15.30;;;9.60;99.90;;;;;;4927582;29;20737;-73
2023/04/15 06:18:39;;;;;;;17.93;15.40;;;9.60;99.90;;;;;;4927894;29;20283;-73
2023/04/15 06:21:06;;;;;;;17.57;15.30;;;9.70;99.90;;;;;;4927655;29;20296;-73
2023/04/15 06:23:35;;;;;;;16.77;15.03;;;9.70;99.90;;;;;;4925750;29;20216;-73
2023/04/15 06:26:02;;;;;;;16.40;14.67;;;9.70;99.90;;;;;;4928133;29;20236;-73
2023/04/15 06:28:28;;;;;;;16.60;14.80;;;9.80;99.90;;;;;;4927855;29;20244;-73
2023/04/15 06:30:56;;;;;;;16.57;14.77;;;9.80;99.90;;;;;;4927949;29;20772;-73
2023/04/15 06:33:22;;;;;;;15.87;14.23;;;9.80;99.90;;;;;;4928212;29;20295;-73
2023/04/15 06:35:51;;;;;;;17.80;14.63;;;9.80;99.90;;;;;;4928204;29;20295;-73
2023/04/15 06:38:18;;;;;;;15.30;13.70;;;9.80;99.90;;;;;;4928260;29;20291;-73
2023/04/15 06:40:45;;;;;;;15.90;13.80;;;9.80;99.90;;;;;;4928230;29;20248;-73
2023/04/15 06:43:12;;;;;;;15.70;13.87;;;9.90;99.90;;;;;;4927950;29;20678;-73
2023/04/15 06:45:39;;;;;;;14.17;12.77;;;9.90;99.90;;;;;;4927396;29;20395;-73
2023/04/15 06:48:06;;;;;;;14.03;12.63;;;9.90;99.90;;;;;;4928104;29;20569;-73
2023/04/15 06:50:34;;;;;;;16.03;13.10;;;9.90;99.90;;;;;;4928059;29;20295;-73
2023/04/15 06:53:02;;;;;;;13.57;12.27;;;9.90;99.90;;;;;;4929981;29;20314;-73
2023/04/15 06:55:30;;;;;;;14.03;12.53;;;9.90;99.90;;;;;;4931283;29;20216;-73
2023/04/15 06:57:57;;;;;;;14.00;12.13;;;10.00;99.90;;;;;;4930886;29;20209;-73
2023/04/15 07:00:24;;;;;;;13.80;12.20;;;10.00;99.90;;;;;;4930571;29;20204;-73
2023/04/15 07:02:51;;;;;;;14.70;12.07;;;10.10;99.90;;;;;;4931633;29;20632;-72
2023/04/15 07:05:19;;;;;;;14.27;12.23;;;10.20;99.90;;;;;;4931017;29;20295;-72
2023/04/15 07:07:45;;;;;;;12.73;11.40;;;10.20;99.90;;;;;;4920180;29;20205;-72
2023/04/15 07:10:14;;;;;;;12.60;11.30;;;10.20;99.90;;;;;;4913652;29;20216;-73
2023/04/15 07:12:41;;;;;;;13.73;12.17;;;10.30;99.90;;;;;;4931290;29;20216;-73
2023/04/15 07:15:09;;;;;;;12.90;11.70;;;10.30;99.90;;;;;;4931109;29;20263;-74
2023/04/15 07:17:36;;;;;;;13.33;12.00;;;10.40;99.90;;;;;;4930624;29;20850;-74
2023/04/15 07:20:03;;;;;;;13.57;12.17;;;10.50;99.90;;;;;;4931115;29;20295;-73
2023/04/15 07:22:30;;;;;;;12.07;10.87;;;10.50;99.90;;;;;;4930586;29;20581;-74
2023/04/15 07:24:57;;;;;;;12.83;11.53;;;10.60;99.90;;;;;;4930743;29;20236;-74
2023/04/15 07:27:26;;;;;;;12.43;11.07;;;10.60;99.90;;;;;;4930318;29;20331;-74
2023/04/15 07:29:52;;;;;;;12.33;10.97;;;10.70;99.90;;;;;;4930315;29;20299;-73
2023/04/15 07:32:20;;;;;;;12.40;10.70;;;10.70;99.90;;;;;;4930921;29;20565;-73
2023/04/15 07:34:47;;;;;;;11.50;10.47;;;10.70;99.90;;;;;;4930442;29;20219;-73
2023/04/15 07:37:13;;;;;;;11.73;10.63;;;10.80;99.90;;;;;;4930402;29;20295;-73
2023/04/15 07:39:41;;;;;;;12.27;11.03;;;10.80;99.90;;;;;;4930012;29;20222;-74
2023/04/15 07:42:08;;;;;;;11.23;10.23;;;10.80;99.90;;;;;;4930461;29;20231;-74
2023/04/15 07:44:36;;;;;;;11.50;10.40;;;10.80;99.90;;;;;;4929960;29;20694;-73
2023/04/15 07:47:03;;;;;;;11.07;10.07;;;10.70;99.90;;;;;;4930050;29;20934;-72
2023/04/15 07:49:30;;;;;;;10.73;9.83;;;10.70;99.90;;;;;;4930063;29;20212;-72
2023/04/15 07:51:58;;;;;;;10.97;9.87;;;10.70;99.90;;;;;;4930319;29;20236;-72
2023/04/15 07:54:26;;;;;;;10.10;9.30;;;10.70;99.90;;;;;;4930457;29;20213;-72
2023/04/15 07:56:53;;;;;;;10.37;9.30;;;10.70;99.90;;;;;;4930269;29;20208;-73
2023/04/15 07:59:20;;;;;;;11.17;10.07;;;10.70;99.90;;;;;;4930041;29;20303;-73
2023/04/15 08:01:48;;;;;;;11.37;10.13;;;10.60;99.90;;;;;;4929983;29;20204;-73
2023/04/15 08:04:16;;;;;;;10.83;9.83;;;10.60;99.90;;;;;;4929330;29;20235;-74
2023/04/15 08:06:43;;;;;;;10.90;9.90;;;10.60;99.90;;;;;;4929783;29;20326;-74
2023/04/15 08:09:10;;;;;;;11.10;10.00;;;10.60;99.90;;;;;;4930319;29;20216;-74
2023/04/15 08:11:37;;;;;;;11.40;10.30;;;10.60;99.90;;;;;;4929644;29;20204;-73
2023/04/15 08:14:04;;;;;;;11.63;10.53;;;10.70;99.90;;;;;;4933036;29;20762;-74
2023/04/15 08:16:31;;;;;;;11.43;10.43;;;10.60;99.90;;;;;;4929027;28;20303;-72
2023/04/15 08:18:59;;;;;;;11.43;10.27;;;10.60;99.90;;;;;;4929884;29;20212;-72
2023/04/15 08:21:27;;;;;;;12.40;11.17;;;10.60;99.90;;;;;;4929758;29;20215;-73
2023/04/15 08:23:54;;;;;;;12.00;10.87;;;10.60;99.90;;;;;;4929247;29;20215;-73
2023/04/15 08:26:21;;;;;;;11.50;10.27;;;10.60;99.90;;;;;;4929635;29;20355;-73
2023/04/15 08:28:49;;;;;;;12.10;10.70;;;10.50;99.90;;;;;;4929591;29;20311;-72
2023/04/15 08:31:17;;;;;;;11.73;10.57;;;10.50;99.90;;;;;;4929680;29;20239;-72
2023/04/15 08:33:44;;;;;;;12.33;10.00;;;10.50;99.90;;;;;;4926906;29;20244;-72
2023/04/15 08:36:12;;;;;;;11.80;10.70;;;10.50;99.90;;;;;;4929035;29;20310;-72
2023/04/15 08:38:39;;;;;;;11.67;10.57;;;10.50;99.90;;;;;;4929054;29;20209;-72
2023/04/15 08:41:12;;;;;;;11.43;10.47;;;10.50;99.90;;;;;;4928957;29;20585;-72
2023/04/15 08:43:46;;;;;;;12.13;10.93;;;10.50;99.90;;;;;;4928728;29;20192;-71
2023/04/15 08:46:14;;;;;;;11.00;10.00;;;10.50;99.90;;;;;;4928806;29;20219;-72
2023/04/15 08:48:42;;;;;;;11.10;10.10;;;10.50;99.90;;;;;;4928539;29;20751;-73
2023/04/15 08:51:09;;;;;;;12.30;11.07;;;10.50;99.90;;;;;;4928722;29;20295;-73
2023/04/15 08:53:38;;;;;;;11.23;10.30;;;10.50;99.90;;;;;;4928465;29;20228;-73
2023/04/15 08:56:07;;;;;;;12.27;11.07;;;10.50;99.90;;;;;;4928223;29;20994;-73
2023/04/15 08:58:35;;;;;;;11.80;10.60;;;10.60;99.90;;;;;;4928377;29;20633;-73
2023/04/15 09:01:02;;;;;;;12.33;11.23;;;10.60;99.90;;;;;;4927970;29;20244;-72
2023/04/15 09:03:30;;;;;;;12.10;10.90;;;10.60;99.90;;;;;;4928450;29;20248;-72
2023/04/15 09:05:57;;;;;;;12.60;11.50;;;10.60;99.90;;;;;;4928646;29;20319;-72
2023/04/15 09:08:24;;;;;;;11.67;10.67;;;10.60;99.90;;;;;;4924820;29;20214;-72
2023/04/15 09:10:54;;;;;;;11.90;10.80;;;10.60;99.90;;;;;;4928964;29;20260;-73
2023/04/15 09:13:21;;;;;;;12.43;11.23;;;10.60;99.90;;;;;;4934201;28;20267;-68
2023/04/15 09:15:49;;;;;;;11.77;10.83;;;10.60;99.90;;;;;;4928211;29;20283;-69
2023/04/15 09:18:28;;;;;;;12.23;11.03;;;10.60;99.90;;;;;;4928799;29;20267;-68
2023/04/15 09:20:55;;;;;;;12.80;11.60;;;10.60;99.90;;;;;;4928111;29;20200;-68
2023/04/15 09:23:22;;;;;;;13.37;11.97;;;10.60;99.90;;;;;;4928776;29;20614;-66
2023/04/15 09:25:50;;;;;;;12.67;11.47;;;10.60;99.90;;;;;;4928400;29;20216;-66
2023/04/15 09:28:25;;;;;;;13.70;12.20;;;10.60;99.90;;;;;;4928337;29;20331;-67
2023/04/15 09:30:55;;;;;;;13.13;11.83;;;10.60;99.90;;;;;;4927991;29;20203;-66
2023/04/15 09:33:25;;;;;;;12.03;11.03;;;10.60;99.90;;;;;;4928169;28;20267;-69
2023/04/15 09:35:59;;;;;;;12.43;11.40;;;10.70;99.90;;;;;;4927819;29;20209;-68
2023/04/15 09:38:27;;;;;;;13.20;11.43;;;10.70;99.90;;;;;;4928047;29;20291;-68
2023/04/15 09:40:54;;;;;;;12.83;11.53;;;10.70;99.90;;;;;;4927989;29;20299;-67
2023/04/15 09:43:23;;;;;;;12.67;11.57;;;10.70;99.90;;;;;;4922400;29;20236;-68
2023/04/15 09:45:50;;;;;;;13.33;12.03;;;10.70;99.90;;;;;;4911771;29;20304;-68
2023/04/15 09:48:20;;;;;;;12.57;11.37;;;10.70;99.90;;;;;;4926085;29;20227;-69
2023/04/15 09:50:49;;;;;;;12.47;11.37;;;10.70;99.90;;;;;;4926583;28;20212;-69
2023/04/15 09:53:17;;;;;;;12.73;11.47;;;10.80;99.90;;;;;;4926475;29;20232;-69
2023/04/15 09:55:46;;;;;;;13.13;11.83;;;10.80;99.90;;;;;;4924366;29;20299;-69
2023/04/15 09:58:22;;;;;;;12.60;11.30;;;10.80;99.90;;;;;;4926413;29;20214;-69
2023/04/15 10:00:50;;;;;;;12.97;11.77;;;10.80;99.90;;;;;;4926476;28;20214;-69
2023/04/15 10:03:21;;;;;;;12.63;11.37;;;10.80;99.90;;;;;;4927003;29;20831;-69
2023/04/15 10:05:50;;;;;;;12.63;11.13;;;10.80;99.90;;;;;;4926833;29;20204;-69
2023/04/15 10:08:19;;;;;;;11.73;10.83;;;10.80;99.90;;;;;;4925460;29;20244;-69
2023/04/15 10:10:47;;;;;;;11.67;10.67;;;10.80;99.90;;;;;;4925815;29;20790;-69
2023/04/15 10:13:16;;;;;;;12.60;11.57;;;10.80;99.90;;;;;;4926205;29;20436;-70
2023/04/15 10:15:49;;;;;;;12.10;11.00;;;10.80;99.90;;;;;;4925611;29;20214;-69
2023/04/15 10:18:17;;;;;;;11.90;10.80;;;10.70;99.90;;;;;;4917374;29;20295;-69
2023/04/15 10:20:45;;;;;;;40.50;26.10;;;10.80;99.90;;;;;;4925674;29;20210;-69
2023/04/15 10:23:12;;;;;;;14.93;13.17;;;10.80;99.90;;;;;;4926028;29;20556;-69
2023/04/15 10:25:39;;;;;;;22.17;18.13;;;10.80;99.90;;;;;;4925685;29;20873;-69
2023/04/15 10:28:07;;;;;;;17.27;15.33;;;10.80;99.90;;;;;;4928258;29;20730;-69
2023/04/15 10:30:35;;;;;;;12.40;11.33;;;10.80;99.90;;;;;;4929297;29;20770;-70
2023/04/15 10:33:04;;;;;;;14.00;11.70;;;10.80;99.90;;;;;;4929718;29;20211;-69
2023/04/15 10:35:33;;;;;;;11.90;10.90;;;10.80;99.90;;;;;;4929726;29;20299;-70
2023/04/15 10:38:00;;;;;;;12.13;11.07;;;10.80;99.90;;;;;;4929988;29;20291;-69
2023/04/15 10:40:30;;;;;;;12.13;11.03;;;10.80;99.90;;;;;;4929767;29;20287;-70
2023/04/15 10:42:59;;;;;;;12.20;11.10;;;10.80;99.90;;;;;;4929952;29;20200;-69
2023/04/15 10:45:27;;;;;;;12.00;10.87;;;10.80;99.90;;;;;;4929857;29;20216;-69
2023/04/15 10:47:58;;;;;;;11.27;10.37;;;10.80;99.90;;;;;;4930069;29;20332;-69
2023/04/15 10:50:28;;;;;;;12.00;10.90;;;10.80;99.90;;;;;;4929832;29;20725;-69
2023/04/15 10:52:56;;;;;;;12.20;11.10;;;10.80;99.90;;;;;;4929703;29;20231;-69
2023/04/15 10:55:25;;;;;;;12.30;11.13;;;10.80;99.90;;;;;;4929374;29;20280;-69
2023/04/15 10:57:53;;;;;;;12.77;11.63;;;10.80;99.90;;;;;;4929729;29;20205;-69
2023/04/15 11:00:24;;;;;;;12.23;11.20;;;10.80;99.90;;;;;;4928840;29;20224;-69
2023/04/15 11:02:54;;;;;;;12.23;11.17;;;10.80;99.90;;;;;;4925710;29;20829;-69
2023/04/15 11:05:22;;;;;;;13.30;11.97;;;10.80;99.90;;;;;;4927668;29;20735;-69
2023/04/15 11:07:52;;;;;;;13.57;12.20;;;10.80;99.90;;;;;;4928752;29;20246;-69
2023/04/15 11:10:53;;;;;;;12.93;11.80;;;10.80;99.90;;;;;;4929176;29;20732;-69
2023/04/15 11:13:24;;;;;;;13.03;11.83;;;10.90;99.90;;;;;;4929469;29;20216;-69
2023/04/15 11:15:51;;;;;;;12.47;11.17;;;10.90;99.90;;;;;;4928785;29;20259;-69
2023/04/15 11:18:19;;;;;;;11.97;10.97;;;10.90;99.90;;;;;;4929193;29;20821;-70
2023/04/15 11:20:49;;;;;;;12.17;11.07;;;10.90;99.90;;;;;;4928975;29;20224;-69
2023/04/15 11:23:18;;;;;;;12.63;11.53;;;10.90;99.90;;;;;;4929490;29;20213;-69
2023/04/15 11:25:46;;;;;;;13.03;11.93;;;11.00;99.90;;;;;;4925946;29;20228;-69
2023/04/15 11:28:14;;;;;;;12.97;11.77;;;11.00;99.90;;;;;;4925347;29;20243;-70
2023/04/15 11:30:42;;;;;;;11.50;10.50;;;10.90;99.90;;;;;;4928438;29;20969;-70
2023/04/15 11:33:12;;;;;;;12.37;11.37;;;11.00;99.90;;;;;;4926595;29;20323;-69
2023/04/15 11:35:41;;;;;;;12.03;10.90;;;10.90;99.90;;;;;;4928688;29;20232;-70
2023/04/15 11:38:10;;;;;;;13.13;11.67;;;10.90;99.90;;;;;;4925103;29;20241;-69
2023/04/15 11:40:39;;;;;;;13.13;11.93;;;10.90;99.90;;;;;;4922289;29;20635;-69
2023/04/15 11:43:08;;;;;;;13.33;11.97;;;11.00;99.90;;;;;;4928964;29;20218;-69
2023/04/15 11:45:35;;;;;;;12.40;11.27;;;11.00;99.90;;;;;;4928897;29;20208;-69
2023/04/15 11:48:06;;;;;;;12.30;11.10;;;11.00;99.90;;;;;;4928956;29;20242;-69
2023/04/15 11:50:34;;;;;;;13.80;11.87;;;11.00;99.90;;;;;;4928957;29;20208;-69
2023/04/15 11:53:03;;;;;;;13.10;11.70;;;11.00;99.90;;;;;;4928949;29;20765;-70
2023/04/15 11:55:30;;;;;;;12.53;11.43;;;11.00;99.90;;;;;;4928712;29;20291;-69
2023/04/15 11:58:09;;;;;;;12.53;11.43;;;11.00;99.90;;;;;;4928761;29;20269;-69
2023/04/15 12:00:37;;;;;;;12.83;11.67;;;11.00;99.90;;;;;;4927049;29;20251;-69
2023/04/15 12:03:14;;;;;;;13.27;11.97;;;11.00;99.90;;;;;;4920601;29;20269;-69
2023/04/15 12:06:10;;;;;;;12.87;11.77;;;11.00;99.90;;;;;;4928289;29;20299;-69
2023/04/15 12:08:57;;;;;;;11.50;10.50;;;11.00;99.90;;;;;;4923043;29;20772;-69
2023/04/15 12:11:39;;;;;;;11.97;11.07;;;11.00;99.90;;;;;;4925849;29;20625;-69
2023/04/15 12:14:12;;;;;;;11.93;10.83;;;11.00;99.90;;;;;;4923826;29;20208;-69
2023/04/15 12:16:42;;;;;;;12.00;10.80;;;11.00;99.90;;;;;;4932941;28;20319;-69
2023/04/15 12:19:11;;;;;;;11.23;10.23;;;11.00;99.90;;;;;;4918396;29;20233;-69
2023/04/15 12:21:39;;;;;;;10.30;9.50;;;11.00;99.90;;;;;;4910187;29;20305;-69
2023/04/15 12:24:08;;;;;;;10.63;9.73;;;10.90;99.90;;;;;;4927280;29;20303;-69
2023/04/15 12:26:37;;;;;;;10.70;9.80;;;10.90;99.90;;;;;;4928377;29;20752;-69
2023/04/15 12:29:06;;;;;;;10.33;9.47;;;11.00;99.90;;;;;;4932282;29;20240;-69
2023/04/15 12:31:35;;;;;;;11.07;10.07;;;11.00;99.90;;;;;;4928542;29;20220;-69
2023/04/15 12:34:04;;;;;;;10.67;9.67;;;11.00;99.90;;;;;;4911588;29;20219;-69
2023/04/15 12:36:35;;;;;;;10.63;9.67;;;11.00;99.90;;;;;;4915978;29;20204;-69
2023/04/15 12:39:03;;;;;;;10.70;9.70;;;11.00;99.90;;;;;;4929758;29;20227;-69